sensor_id;sensor_type;location;lat;lon;timestamp;pressure;altitude;pressure_sealevel;temperature;humidity
50933;BME280;36921;49.006;9.292;2022-07-18T00:00:11;99461.91;;;15.48;66.85
50933;BME280;36921;49.006;9.292;2022-07-18T00:02:37;99459.03;;;15.37;65.80
50933;BME280;36921;49.006;9.292;2022-07-18T00:05:03;99462.81;;;15.36;66.44
50933;BME280;36921;49.006;9.292;2022-07-18T00:07:28;99469.53;;;15.33;65.31
50933;BME280;36921;49.006;9.292;2022-07-18T00:09:54;99467.06;;;15.25;65.86
50933;BME280;36921;49.006;9.292;2022-07-18T00:12:19;99471.25;;;15.27;66.50
50933;BME280;36921;49.006;9.292;2022-07-18T00:14:44;99471.09;;;15.16;66.99
50933;BME280;36921;49.006;9.292;2022-07-18T00:17:10;99465.06;;;15.00;69.67
50933;BME280;36921;49.006;9.292;2022-07-18T00:19:36;99473.47;;;14.99;69.24
50933;BME280;36921;49.006;9.292;2022-07-18T00:22:02;99475.75;;;15.02;66.88
50933;BME280;36921;49.006;9.292;2022-07-18T00:24:28;99473.47;;;14.99;66.28
50933;BME280;36921;49.006;9.292;2022-07-18T00:26:53;99472.41;;;15.06;66.57
50933;BME280;36921;49.006;9.292;2022-07-18T00:29:18;99461.25;;;15.15;66.88
50933;BME280;36921;49.006;9.292;2022-07-18T00:31:44;99463.34;;;15.12;67.54
50933;BME280;36921;49.006;9.292;2022-07-18T00:34:09;99462.78;;;14.97;68.42
50933;BME280;36921;49.006;9.292;2022-07-18T00:36:35;99462.19;;;14.82;68.39
50933;BME280;36921;49.006;9.292;2022-07-18T00:39:00;99466.81;;;14.81;69.35
50933;BME280;36921;49.006;9.292;2022-07-18T00:41:26;99457.19;;;14.79;69.13
50933;BME280;36921;49.006;9.292;2022-07-18T00:43:52;99464.53;;;14.72;69.44
50933;BME280;36921;49.006;9.292;2022-07-18T00:46:22;99458.25;;;14.64;68.43
50933;BME280;36921;49.006;9.292;2022-07-18T00:48:48;99466.06;;;14.41;68.53
50933;BME280;36921;49.006;9.292;2022-07-18T00:51:13;99460.63;;;14.34;68.82
50933;BME280;36921;49.006;9.292;2022-07-18T00:53:39;99460.63;;;14.21;68.72
50933;BME280;36921;49.006;9.292;2022-07-18T00:56:05;99456.00;;;14.21;69.90
50933;BME280;36921;49.006;9.292;2022-07-18T00:58:31;99463.56;;;14.26;71.19
50933;BME280;36921;49.006;9.292;2022-07-18T01:00:57;99463.16;;;14.16;70.09
50933;BME280;36921;49.006;9.292;2022-07-18T01:03:41;99461.28;;;14.10;71.65
50933;BME280;36921;49.006;9.292;2022-07-18T01:06:06;99457.09;;;14.07;75.98
50933;BME280;36921;49.006;9.292;2022-07-18T01:08:32;99471.31;;;13.96;78.92
50933;BME280;36921;49.006;9.292;2022-07-18T01:10:58;99472.56;;;13.87;81.42
50933;BME280;36921;49.006;9.292;2022-07-18T01:13:23;99472.34;;;13.81;81.78
50933;BME280;36921;49.006;9.292;2022-07-18T01:15:49;99473.38;;;13.80;81.20
50933;BME280;36921;49.006;9.292;2022-07-18T01:18:14;99468.16;;;13.72;80.78
50933;BME280;36921;49.006;9.292;2022-07-18T01:20:40;99476.31;;;13.72;77.44
50933;BME280;36921;49.006;9.292;2022-07-18T01:23:05;99474.41;;;13.66;76.18
50933;BME280;36921;49.006;9.292;2022-07-18T01:25:31;99475.25;;;13.67;76.09
50933;BME280;36921;49.006;9.292;2022-07-18T01:27:56;99477.75;;;13.62;75.43
50933;BME280;36921;49.006;9.292;2022-07-18T01:30:23;99471.47;;;13.54;74.46
50933;BME280;36921;49.006;9.292;2022-07-18T01:32:59;99471.44;;;13.41;73.73
50933;BME280;36921;49.006;9.292;2022-07-18T01:35:26;99472.47;;;13.40;72.76
50933;BME280;36921;49.006;9.292;2022-07-18T01:37:52;99471.00;;;13.37;73.31
50933;BME280;36921;49.006;9.292;2022-07-18T01:40:18;99467.03;;;13.33;74.22
50933;BME280;36921;49.006;9.292;2022-07-18T01:42:43;99467.25;;;13.38;79.77
50933;BME280;36921;49.006;9.292;2022-07-18T01:45:09;99468.34;;;13.57;82.44
50933;BME280;36921;49.006;9.292;2022-07-18T01:47:34;99468.56;;;13.63;81.87
50933;BME280;36921;49.006;9.292;2022-07-18T01:49:59;99471.69;;;13.53;80.20
50933;BME280;36921;49.006;9.292;2022-07-18T01:52:25;99467.31;;;13.52;81.11
50933;BME280;36921;49.006;9.292;2022-07-18T01:54:50;99466.22;;;13.40;79.01
50933;BME280;36921;49.006;9.292;2022-07-18T01:57:16;99475.19;;;13.40;76.72
50933;BME280;36921;49.006;9.292;2022-07-18T01:59:41;99474.56;;;13.38;76.27
50933;BME280;36921;49.006;9.292;2022-07-18T02:02:06;99482.94;;;13.36;77.04
50933;BME280;36921;49.006;9.292;2022-07-18T02:04:32;99482.88;;;13.23;77.00
50933;BME280;36921;49.006;9.292;2022-07-18T02:07:16;99485.13;;;13.13;78.18
50933;BME280;36921;49.006;9.292;2022-07-18T02:09:41;99478.84;;;13.12;79.28
50933;BME280;36921;49.006;9.292;2022-07-18T02:12:06;99482.22;;;13.21;78.90
50933;BME280;36921;49.006;9.292;2022-07-18T02:14:32;99469.97;;;13.32;77.55
50933;BME280;36921;49.006;9.292;2022-07-18T02:16:57;99473.50;;;13.32;76.95
50933;BME280;36921;49.006;9.292;2022-07-18T02:19:23;99468.06;;;13.32;77.81
50933;BME280;36921;49.006;9.292;2022-07-18T02:21:49;99479.81;;;13.40;78.84
50933;BME280;36921;49.006;9.292;2022-07-18T02:24:14;99474.78;;;13.36;80.07
50933;BME280;36921;49.006;9.292;2022-07-18T02:26:40;99476.88;;;13.34;79.68
50933;BME280;36921;49.006;9.292;2022-07-18T02:29:05;99470.06;;;13.17;80.30
50933;BME280;36921;49.006;9.292;2022-07-18T02:31:30;99475.28;;;13.12;80.87
50933;BME280;36921;49.006;9.292;2022-07-18T02:33:56;99485.28;;;12.98;77.95
50933;BME280;36921;49.006;9.292;2022-07-18T02:36:21;99478.72;;;12.86;79.81
50933;BME280;36921;49.006;9.292;2022-07-18T02:38:46;99468.25;;;12.76;79.43
50933;BME280;36921;49.006;9.292;2022-07-18T02:41:12;99471.22;;;12.81;78.06
50933;BME280;36921;49.006;9.292;2022-07-18T02:43:37;99476.47;;;12.96;75.82
50933;BME280;36921;49.006;9.292;2022-07-18T02:46:03;99478.41;;;13.09;73.30
50933;BME280;36921;49.006;9.292;2022-07-18T02:48:28;99469.19;;;13.03;72.95
50933;BME280;36921;49.006;9.292;2022-07-18T02:50:54;99466.63;;;12.88;73.33
50933;BME280;36921;49.006;9.292;2022-07-18T02:53:19;99475.41;;;12.84;75.07
50933;BME280;36921;49.006;9.292;2022-07-18T02:55:47;99476.59;;;12.75;78.14
50933;BME280;36921;49.006;9.292;2022-07-18T02:58:12;99484.47;;;12.63;78.13
50933;BME280;36921;49.006;9.292;2022-07-18T03:00:38;99478.75;;;12.51;78.93
50933;BME280;36921;49.006;9.292;2022-07-18T03:03:03;99484.38;;;12.49;80.82
50933;BME280;36921;49.006;9.292;2022-07-18T03:05:28;99477.69;;;12.45;80.91
50933;BME280;36921;49.006;9.292;2022-07-18T03:07:54;99486.47;;;12.47;81.08
50933;BME280;36921;49.006;9.292;2022-07-18T03:10:19;99484.28;;;12.36;80.99
50933;BME280;36921;49.006;9.292;2022-07-18T03:12:44;99478.47;;;12.39;83.01
50933;BME280;36921;49.006;9.292;2022-07-18T03:15:10;99477.09;;;12.50;84.84
50933;BME280;36921;49.006;9.292;2022-07-18T03:17:35;99472.66;;;12.42;84.80
50933;BME280;36921;49.006;9.292;2022-07-18T03:20:00;99485.16;;;12.37;83.39
50933;BME280;36921;49.006;9.292;2022-07-18T03:22:26;99480.06;;;12.27;84.27
50933;BME280;36921;49.006;9.292;2022-07-18T03:24:51;99488.38;;;12.25;84.32
50933;BME280;36921;49.006;9.292;2022-07-18T03:27:17;99485.47;;;12.27;84.50
50933;BME280;36921;49.006;9.292;2022-07-18T03:29:42;99478.84;;;12.36;83.05
50933;BME280;36921;49.006;9.292;2022-07-18T03:32:07;99485.56;;;12.40;84.05
50933;BME280;36921;49.006;9.292;2022-07-18T03:34:33;99483.94;;;12.46;85.33
50933;BME280;36921;49.006;9.292;2022-07-18T03:36:58;99482.28;;;12.52;85.31
50933;BME280;36921;49.006;9.292;2022-07-18T03:39:24;99479.34;;;12.46;86.56
50933;BME280;36921;49.006;9.292;2022-07-18T03:41:51;99484.53;;;12.41;87.57
50933;BME280;36921;49.006;9.292;2022-07-18T03:44:17;99484.34;;;12.43;89.61
50933;BME280;36921;49.006;9.292;2022-07-18T03:46:42;99480.19;;;12.47;85.54
50933;BME280;36921;49.006;9.292;2022-07-18T03:49:08;99476.00;;;12.44;89.06
50933;BME280;36921;49.006;9.292;2022-07-18T03:51:34;99476.22;;;12.49;91.54
50933;BME280;36921;49.006;9.292;2022-07-18T03:53:59;99479.59;;;12.52;91.17
50933;BME280;36921;49.006;9.292;2022-07-18T03:56:25;99479.75;;;12.43;91.42
50933;BME280;36921;49.006;9.292;2022-07-18T03:58:50;99474.16;;;12.52;91.40
50933;BME280;36921;49.006;9.292;2022-07-18T04:01:16;99476.84;;;12.45;92.30
50933;BME280;36921;49.006;9.292;2022-07-18T04:03:41;99475.94;;;12.38;92.96
50933;BME280;36921;49.006;9.292;2022-07-18T04:06:06;99474.53;;;12.42;93.47
50933;BME280;36921;49.006;9.292;2022-07-18T04:08:33;99474.31;;;12.43;91.51
50933;BME280;36921;49.006;9.292;2022-07-18T04:10:58;99474.72;;;12.40;91.53
50933;BME280;36921;49.006;9.292;2022-07-18T04:13:24;99486.50;;;12.54;89.67
50933;BME280;36921;49.006;9.292;2022-07-18T04:15:49;99477.91;;;12.50;89.75
50933;BME280;36921;49.006;9.292;2022-07-18T04:18:14;99473.31;;;12.51;89.53
50933;BME280;36921;49.006;9.292;2022-07-18T04:20:40;99467.94;;;12.58;89.96
50933;BME280;36921;49.006;9.292;2022-07-18T04:23:07;99477.59;;;12.67;88.52
50933;BME280;36921;49.006;9.292;2022-07-18T04:25:38;99475.09;;;12.65;89.18
50933;BME280;36921;49.006;9.292;2022-07-18T04:28:05;99477.88;;;12.85;88.68
50933;BME280;36921;49.006;9.292;2022-07-18T04:30:31;99479.19;;;12.89;86.71
50933;BME280;36921;49.006;9.292;2022-07-18T04:32:59;99474.00;;;13.01;86.47
50933;BME280;36921;49.006;9.292;2022-07-18T04:35:25;99476.34;;;13.11;85.62
50933;BME280;36921;49.006;9.292;2022-07-18T04:37:51;99474.50;;;13.18;85.31
50933;BME280;36921;49.006;9.292;2022-07-18T04:40:17;99486.88;;;13.27;85.36
50933;BME280;36921;49.006;9.292;2022-07-18T04:42:44;99452.97;;;13.23;84.59
50933;BME280;36921;49.006;9.292;2022-07-18T04:45:10;99478.56;;;13.49;83.81
50933;BME280;36921;49.006;9.292;2022-07-18T04:47:36;99479.22;;;13.64;82.91
50933;BME280;36921;49.006;9.292;2022-07-18T04:50:03;99474.84;;;13.76;82.42
50933;BME280;36921;49.006;9.292;2022-07-18T04:52:42;99471.94;;;13.85;81.29
50933;BME280;36921;49.006;9.292;2022-07-18T04:55:08;99477.38;;;13.91;80.53
50933;BME280;36921;49.006;9.292;2022-07-18T04:57:34;99471.50;;;14.01;72.65
50933;BME280;36921;49.006;9.292;2022-07-18T05:00:03;99470.69;;;14.07;67.10
50933;BME280;36921;49.006;9.292;2022-07-18T05:02:29;99471.09;;;14.24;69.05
50933;BME280;36921;49.006;9.292;2022-07-18T05:04:54;99481.31;;;14.35;68.22
50933;BME280;36921;49.006;9.292;2022-07-18T05:07:20;99477.56;;;14.50;68.46
50933;BME280;36921;49.006;9.292;2022-07-18T05:09:45;99480.28;;;14.56;69.08
50933;BME280;36921;49.006;9.292;2022-07-18T05:12:11;99481.69;;;14.79;71.19
50933;BME280;36921;49.006;9.292;2022-07-18T05:14:36;99480.16;;;15.03;70.39
50933;BME280;36921;49.006;9.292;2022-07-18T05:17:01;99475.28;;;15.11;69.96
50933;BME280;36921;49.006;9.292;2022-07-18T05:19:28;99478.19;;;15.23;64.57
50933;BME280;36921;49.006;9.292;2022-07-18T05:21:54;99465.63;;;15.16;62.26
50933;BME280;36921;49.006;9.292;2022-07-18T05:24:19;99480.03;;;15.29;61.21
50933;BME280;36921;49.006;9.292;2022-07-18T05:26:45;99481.00;;;15.48;60.41
50933;BME280;36921;49.006;9.292;2022-07-18T05:29:10;99461.59;;;15.63;59.78
50933;BME280;36921;49.006;9.292;2022-07-18T05:31:39;99479.84;;;15.94;58.82
50933;BME280;36921;49.006;9.292;2022-07-18T05:34:05;99483.38;;;16.02;58.08
50933;BME280;36921;49.006;9.292;2022-07-18T05:36:30;99480.75;;;16.13;57.69
50933;BME280;36921;49.006;9.292;2022-07-18T05:38:55;99482.78;;;16.25;57.27
50933;BME280;36921;49.006;9.292;2022-07-18T05:41:21;99470.19;;;16.42;55.71
50933;BME280;36921;49.006;9.292;2022-07-18T05:43:46;99478.25;;;16.55;54.93
50933;BME280;36921;49.006;9.292;2022-07-18T05:46:11;99469.81;;;16.82;53.41
50933;BME280;36921;49.006;9.292;2022-07-18T05:48:37;99469.38;;;17.03;51.26
50933;BME280;36921;49.006;9.292;2022-07-18T05:51:02;99474.16;;;17.38;51.04
50933;BME280;36921;49.006;9.292;2022-07-18T05:53:28;99475.13;;;17.74;50.55
50933;BME280;36921;49.006;9.292;2022-07-18T05:55:53;99471.53;;;18.15;51.79
50933;BME280;36921;49.006;9.292;2022-07-18T05:58:18;99469.66;;;18.51;52.01
50933;BME280;36921;49.006;9.292;2022-07-18T06:00:44;99457.00;;;18.74;52.41
50933;BME280;36921;49.006;9.292;2022-07-18T06:03:10;99473.00;;;18.77;50.35
50933;BME280;36921;49.006;9.292;2022-07-18T06:05:36;99479.44;;;18.82;51.42
50933;BME280;36921;49.006;9.292;2022-07-18T06:08:01;99486.78;;;19.05;52.70
50933;BME280;36921;49.006;9.292;2022-07-18T06:10:27;99476.91;;;19.33;51.57
50933;BME280;36921;49.006;9.292;2022-07-18T06:12:54;99480.78;;;19.78;48.47
50933;BME280;36921;49.006;9.292;2022-07-18T06:15:20;99463.44;;;20.06;48.72
50933;BME280;36921;49.006;9.292;2022-07-18T06:17:46;99468.25;;;20.32;47.91
50933;BME280;36921;49.006;9.292;2022-07-18T06:20:11;99460.16;;;20.43;47.99
50933;BME280;36921;49.006;9.292;2022-07-18T06:22:37;99461.34;;;20.47;47.67
50933;BME280;36921;49.006;9.292;2022-07-18T06:25:03;99456.09;;;20.62;47.61
50933;BME280;36921;49.006;9.292;2022-07-18T06:27:29;99464.00;;;20.75;46.00
50933;BME280;36921;49.006;9.292;2022-07-18T06:29:54;99457.31;;;20.71;45.50
50933;BME280;36921;49.006;9.292;2022-07-18T06:32:20;99462.25;;;21.13;44.17
50933;BME280;36921;49.006;9.292;2022-07-18T06:34:45;99458.88;;;21.50;43.94
50933;BME280;36921;49.006;9.292;2022-07-18T06:37:11;99457.53;;;21.85;43.24
50933;BME280;36921;49.006;9.292;2022-07-18T06:39:36;99466.47;;;22.24;42.92
50933;BME280;36921;49.006;9.292;2022-07-18T06:42:02;99471.00;;;22.83;41.41
50933;BME280;36921;49.006;9.292;2022-07-18T06:44:27;99467.38;;;22.78;40.22
50933;BME280;36921;49.006;9.292;2022-07-18T06:46:53;99465.50;;;22.88;39.12
50933;BME280;36921;49.006;9.292;2022-07-18T06:49:19;99455.81;;;23.44;37.73
50933;BME280;36921;49.006;9.292;2022-07-18T06:51:45;99459.19;;;23.66;37.47
50933;BME280;36921;49.006;9.292;2022-07-18T06:54:10;99450.88;;;24.84;36.60
50933;BME280;36921;49.006;9.292;2022-07-18T06:56:35;99448.34;;;26.31;34.23
50933;BME280;36921;49.006;9.292;2022-07-18T06:59:01;99445.09;;;27.68;31.71
50933;BME280;36921;49.006;9.292;2022-07-18T07:01:26;99447.31;;;28.37;30.79
50933;BME280;36921;49.006;9.292;2022-07-18T07:03:52;99440.75;;;28.79;30.11
50933;BME280;36921;49.006;9.292;2022-07-18T07:06:17;99445.41;;;31.06;27.46
50933;BME280;36921;49.006;9.292;2022-07-18T07:08:43;99446.66;;;31.39;27.01
50933;BME280;36921;49.006;9.292;2022-07-18T07:11:09;99446.03;;;31.69;26.91
50933;BME280;36921;49.006;9.292;2022-07-18T07:13:34;99438.25;;;32.35;26.49
50933;BME280;36921;49.006;9.292;2022-07-18T07:16:00;99439.97;;;32.74;25.38
50933;BME280;36921;49.006;9.292;2022-07-18T07:18:25;99447.22;;;33.44;24.68
50933;BME280;36921;49.006;9.292;2022-07-18T07:20:51;99442.88;;;33.55;24.50
50933;BME280;36921;49.006;9.292;2022-07-18T07:23:16;99441.31;;;34.41;23.59
50933;BME280;36921;49.006;9.292;2022-07-18T07:25:42;99447.41;;;35.38;23.08
50933;BME280;36921;49.006;9.292;2022-07-18T07:28:07;99440.81;;;34.97;22.54
50933;BME280;36921;49.006;9.292;2022-07-18T07:30:33;99439.56;;;35.19;21.96
50933;BME280;36921;49.006;9.292;2022-07-18T07:33:00;99436.53;;;35.77;21.84
50933;BME280;36921;49.006;9.292;2022-07-18T07:35:26;99435.00;;;35.15;22.25
50933;BME280;36921;49.006;9.292;2022-07-18T07:37:57;99439.97;;;36.11;20.42
50933;BME280;36921;49.006;9.292;2022-07-18T07:40:24;99436.22;;;35.94;21.23
50933;BME280;36921;49.006;9.292;2022-07-18T07:42:51;99434.56;;;36.50;20.92
50933;BME280;36921;49.006;9.292;2022-07-18T07:45:18;99427.94;;;37.72;20.52
50933;BME280;36921;49.006;9.292;2022-07-18T07:47:43;99435.59;;;37.37;19.84
50933;BME280;36921;49.006;9.292;2022-07-18T07:50:10;99432.28;;;36.24;20.54
50933;BME280;36921;49.006;9.292;2022-07-18T07:52:36;99419.78;;;37.87;19.08
50933;BME280;36921;49.006;9.292;2022-07-18T07:55:06;99424.16;;;36.82;20.38
50933;BME280;36921;49.006;9.292;2022-07-18T07:57:32;99432.66;;;37.33;19.71
50933;BME280;36921;49.006;9.292;2022-07-18T07:59:57;99417.22;;;37.62;19.47
50933;BME280;36921;49.006;9.292;2022-07-18T08:02:23;99426.09;;;38.85;19.12
50933;BME280;36921;49.006;9.292;2022-07-18T08:04:48;99431.44;;;39.39;18.28
50933;BME280;36921;49.006;9.292;2022-07-18T08:07:15;99424.75;;;40.52;17.04
50933;BME280;36921;49.006;9.292;2022-07-18T08:09:40;99414.22;;;39.25;17.97
50933;BME280;36921;49.006;9.292;2022-07-18T08:12:06;99418.72;;;39.56;18.14
50933;BME280;36921;49.006;9.292;2022-07-18T08:14:31;99421.41;;;40.81;17.33
50933;BME280;36921;49.006;9.292;2022-07-18T08:16:58;99423.97;;;40.56;17.09
50933;BME280;36921;49.006;9.292;2022-07-18T08:19:24;99408.63;;;40.64;16.67
50933;BME280;36921;49.006;9.292;2022-07-18T08:21:49;99416.00;;;39.63;17.18
50933;BME280;36921;49.006;9.292;2022-07-18T08:24:15;99411.09;;;39.60;17.53
50933;BME280;36921;49.006;9.292;2022-07-18T08:26:40;99408.00;;;40.37;16.92
50933;BME280;36921;49.006;9.292;2022-07-18T08:29:06;99405.13;;;39.69;17.06
50933;BME280;36921;49.006;9.292;2022-07-18T08:31:32;99404.84;;;38.48;18.51
50933;BME280;36921;49.006;9.292;2022-07-18T08:33:57;99410.09;;;39.45;17.79
50933;BME280;36921;49.006;9.292;2022-07-18T08:36:23;99404.81;;;40.42;17.01
50933;BME280;36921;49.006;9.292;2022-07-18T08:38:49;99398.59;;;41.18;17.27
50933;BME280;36921;49.006;9.292;2022-07-18T08:41:17;99400.78;;;39.75;17.52
50933;BME280;36921;49.006;9.292;2022-07-18T08:43:44;99394.09;;;40.24;17.17
50933;BME280;36921;49.006;9.292;2022-07-18T08:46:10;99399.38;;;41.85;15.88
50933;BME280;36921;49.006;9.292;2022-07-18T08:48:36;99404.66;;;40.65;16.73
50933;BME280;36921;49.006;9.292;2022-07-18T08:51:01;99405.25;;;40.88;16.85
50933;BME280;36921;49.006;9.292;2022-07-18T08:53:27;99402.94;;;41.71;16.36
50933;BME280;36921;49.006;9.292;2022-07-18T08:55:52;99404.31;;;40.73;16.78
50933;BME280;36921;49.006;9.292;2022-07-18T08:58:18;99399.44;;;41.95;16.42
50933;BME280;36921;49.006;9.292;2022-07-18T09:00:44;99406.69;;;40.68;17.43
50933;BME280;36921;49.006;9.292;2022-07-18T09:03:10;99406.44;;;39.75;17.47
50933;BME280;36921;49.006;9.292;2022-07-18T09:05:35;99397.63;;;40.14;17.72
50933;BME280;36921;49.006;9.292;2022-07-18T09:08:27;99406.31;;;41.21;17.47
50933;BME280;36921;49.006;9.292;2022-07-18T09:10:55;99405.97;;;42.21;15.97
50933;BME280;36921;49.006;9.292;2022-07-18T09:16:06;99404.25;;;40.25;16.68
50933;BME280;36921;49.006;9.292;2022-07-18T09:18:48;99402.91;;;39.82;16.99
50933;BME280;36921;49.006;9.292;2022-07-18T09:21:23;99405.09;;;39.96;17.08
50933;BME280;36921;49.006;9.292;2022-07-18T09:23:51;99398.22;;;41.23;16.76
50933;BME280;36921;49.006;9.292;2022-07-18T09:29:01;99401.22;;;42.61;15.28
50933;BME280;36921;49.006;9.292;2022-07-18T09:31:26;99398.78;;;42.99;15.71
50933;BME280;36921;49.006;9.292;2022-07-18T09:34:00;99399.44;;;41.99;15.62
50933;BME280;36921;49.006;9.292;2022-07-18T09:36:27;99391.41;;;41.35;15.56
50933;BME280;36921;49.006;9.292;2022-07-18T09:38:54;99397.00;;;42.04;15.13
50933;BME280;36921;49.006;9.292;2022-07-18T09:41:27;99384.84;;;42.04;15.21
50933;BME280;36921;49.006;9.292;2022-07-18T09:43:53;99386.16;;;42.35;15.42
50933;BME280;36921;49.006;9.292;2022-07-18T09:46:18;99386.50;;;43.45;14.66
50933;BME280;36921;49.006;9.292;2022-07-18T09:48:44;99386.78;;;43.83;15.25
50933;BME280;36921;49.006;9.292;2022-07-18T09:51:10;99385.56;;;44.57;14.48
50933;BME280;36921;49.006;9.292;2022-07-18T09:53:40;99384.03;;;43.61;14.46
50933;BME280;36921;49.006;9.292;2022-07-18T09:56:11;99373.44;;;43.65;14.55
50933;BME280;36921;49.006;9.292;2022-07-18T09:58:39;99369.84;;;43.32;14.61
50933;BME280;36921;49.006;9.292;2022-07-18T10:01:06;99366.56;;;44.29;13.78
50933;BME280;36921;49.006;9.292;2022-07-18T10:03:32;99374.66;;;44.42;13.84
50933;BME280;36921;49.006;9.292;2022-07-18T10:05:58;99370.94;;;43.74;13.77
50933;BME280;36921;49.006;9.292;2022-07-18T10:08:28;99362.19;;;42.61;14.32
50933;BME280;36921;49.006;9.292;2022-07-18T10:10:55;99369.47;;;42.73;14.45
50933;BME280;36921;49.006;9.292;2022-07-18T10:13:22;99368.25;;;42.99;14.27
50933;BME280;36921;49.006;9.292;2022-07-18T10:15:49;99369.50;;;42.66;13.71
50933;BME280;36921;49.006;9.292;2022-07-18T10:18:23;99366.63;;;41.32;14.82
50933;BME280;36921;49.006;9.292;2022-07-18T10:20:59;99365.28;;;41.92;15.87
50933;BME280;36921;49.006;9.292;2022-07-18T10:26:20;99367.41;;;43.42;13.61
50933;BME280;36921;49.006;9.292;2022-07-18T10:31:32;99360.13;;;43.26;14.35
50933;BME280;36921;49.006;9.292;2022-07-18T10:36:30;99365.97;;;44.56;13.82
50933;BME280;36921;49.006;9.292;2022-07-18T10:39:15;99360.66;;;43.98;14.09
50933;BME280;36921;49.006;9.292;2022-07-18T10:57:28;99347.56;;;41.36;14.16
50933;BME280;36921;49.006;9.292;2022-07-18T11:00:01;99340.44;;;41.71;14.37
50933;BME280;36921;49.006;9.292;2022-07-18T11:02:32;99332.03;;;41.99;13.91
50933;BME280;36921;49.006;9.292;2022-07-18T11:04:58;99335.78;;;41.30;14.60
50933;BME280;36921;49.006;9.292;2022-07-18T11:07:23;99327.00;;;41.60;15.06
50933;BME280;36921;49.006;9.292;2022-07-18T11:09:48;99342.34;;;40.35;14.83
50933;BME280;36921;49.006;9.292;2022-07-18T11:12:24;99339.50;;;40.35;14.97
50933;BME280;36921;49.006;9.292;2022-07-18T11:15:10;99336.22;;;40.29;14.98
50933;BME280;36921;49.006;9.292;2022-07-18T11:20:55;99326.47;;;40.71;14.57
50933;BME280;36921;49.006;9.292;2022-07-18T11:23:21;99327.28;;;40.71;14.59
50933;BME280;36921;49.006;9.292;2022-07-18T11:25:50;99322.16;;;39.65;15.60
50933;BME280;36921;49.006;9.292;2022-07-18T11:28:15;99321.22;;;41.39;15.27
50933;BME280;36921;49.006;9.292;2022-07-18T11:30:42;99318.13;;;41.69;14.73
50933;BME280;36921;49.006;9.292;2022-07-18T11:33:28;99318.28;;;42.55;14.48
50933;BME280;36921;49.006;9.292;2022-07-18T11:38:29;99303.94;;;40.41;15.38
50933;BME280;36921;49.006;9.292;2022-07-18T11:40:54;99315.38;;;39.43;15.96
50933;BME280;36921;49.006;9.292;2022-07-18T11:43:24;99306.78;;;40.03;15.44
50933;BME280;36921;49.006;9.292;2022-07-18T11:46:20;99308.44;;;40.49;15.11
50933;BME280;36921;49.006;9.292;2022-07-18T11:48:49;99302.47;;;41.16;14.59
50933;BME280;36921;49.006;9.292;2022-07-18T11:51:22;99295.75;;;41.57;14.65
50933;BME280;36921;49.006;9.292;2022-07-18T11:53:51;99289.59;;;41.44;14.69
50933;BME280;36921;49.006;9.292;2022-07-18T11:56:18;99290.56;;;41.00;15.71
50933;BME280;36921;49.006;9.292;2022-07-18T11:58:45;99289.69;;;41.62;14.92
50933;BME280;36921;49.006;9.292;2022-07-18T12:01:12;99275.22;;;42.39;15.03
50933;BME280;36921;49.006;9.292;2022-07-18T12:03:48;99279.66;;;42.15;14.42
50933;BME280;36921;49.006;9.292;2022-07-18T12:06:15;99297.06;;;43.21;14.06
50933;BME280;36921;49.006;9.292;2022-07-18T12:08:46;99285.75;;;42.24;14.50
50933;BME280;36921;49.006;9.292;2022-07-18T12:13:59;99269.19;;;40.06;15.74
50933;BME280;36921;49.006;9.292;2022-07-18T12:16:32;99276.22;;;40.71;15.50
50933;BME280;36921;49.006;9.292;2022-07-18T12:19:04;99270.75;;;41.07;15.19
50933;BME280;36921;49.006;9.292;2022-07-18T12:24:33;99266.13;;;41.54;15.04
50933;BME280;36921;49.006;9.292;2022-07-18T12:35:05;99259.75;;;42.22;14.58
50933;BME280;36921;49.006;9.292;2022-07-18T12:37:31;99256.91;;;42.18;14.81
50933;BME280;36921;49.006;9.292;2022-07-18T12:39:58;99257.72;;;42.15;14.45
50933;BME280;36921;49.006;9.292;2022-07-18T12:42:39;99246.38;;;42.08;15.15
50933;BME280;36921;49.006;9.292;2022-07-18T12:45:06;99255.91;;;41.39;15.43
50933;BME280;36921;49.006;9.292;2022-07-18T12:47:32;99256.63;;;41.14;15.09
50933;BME280;36921;49.006;9.292;2022-07-18T12:49:57;99260.41;;;39.78;16.03
50933;BME280;36921;49.006;9.292;2022-07-18T12:52:23;99248.94;;;40.56;15.90
50933;BME280;36921;49.006;9.292;2022-07-18T12:54:49;99245.09;;;41.91;15.21
50933;BME280;36921;49.006;9.292;2022-07-18T12:57:16;99240.69;;;42.08;15.28
50933;BME280;36921;49.006;9.292;2022-07-18T12:59:42;99234.53;;;41.85;15.44
50933;BME280;36921;49.006;9.292;2022-07-18T13:02:07;99232.53;;;42.39;14.80
50933;BME280;36921;49.006;9.292;2022-07-18T13:04:33;99218.28;;;42.71;14.31
50933;BME280;36921;49.006;9.292;2022-07-18T13:06:58;99231.31;;;42.58;14.72
50933;BME280;36921;49.006;9.292;2022-07-18T13:09:23;99228.06;;;42.49;14.43
50933;BME280;36921;49.006;9.292;2022-07-18T13:11:49;99234.00;;;43.11;14.42
50933;BME280;36921;49.006;9.292;2022-07-18T13:14:15;99234.25;;;43.53;14.47
50933;BME280;36921;49.006;9.292;2022-07-18T13:16:42;99236.84;;;43.22;14.47
50933;BME280;36921;49.006;9.292;2022-07-18T13:19:11;99236.56;;;42.59;14.89
50933;BME280;36921;49.006;9.292;2022-07-18T13:21:37;99226.88;;;41.92;15.60
50933;BME280;36921;49.006;9.292;2022-07-18T13:24:02;99234.97;;;41.94;14.71
50933;BME280;36921;49.006;9.292;2022-07-18T13:26:28;99232.53;;;42.50;14.52
50933;BME280;36921;49.006;9.292;2022-07-18T13:28:54;99232.13;;;41.94;15.03
50933;BME280;36921;49.006;9.292;2022-07-18T13:31:19;99222.75;;;41.86;14.86
50933;BME280;36921;49.006;9.292;2022-07-18T13:33:45;99224.41;;;42.19;15.06
50933;BME280;36921;49.006;9.292;2022-07-18T13:36:12;99226.41;;;42.65;14.33
50933;BME280;36921;49.006;9.292;2022-07-18T13:38:38;99224.41;;;42.05;14.57
50933;BME280;36921;49.006;9.292;2022-07-18T13:41:03;99218.28;;;41.64;14.98
50933;BME280;36921;49.006;9.292;2022-07-18T13:43:29;99212.03;;;43.16;14.61
50933;BME280;36921;49.006;9.292;2022-07-18T13:45:55;99214.59;;;42.71;15.20